Time;durP1;ratioP1;P1;durP2;ratioP2;P2;SDS_P1;SDS_P2;PMS_P1;PMS_P2;Temp;Humidity;BMP_temperature;BMP_pressure;BME280_temperature;BME280_humidity;BME280_pressure;Samples;Min_cycle;Max_cycle;Signal;HPM_P1;HPM_P2
2022/11/10 00:00:23;;;;;;;5.77;1.80;;;12.60;93.60;;;;;;5108898;28;20440;-68
2022/11/10 00:02:49;;;;;;;6.63;1.93;;;12.50;93.70;;;;;;5109153;28;20500;-69
2022/11/10 00:05:16;;;;;;;3.47;1.80;;;12.50;93.60;;;;;;5108245;28;20446;-69
2022/11/10 00:07:43;;;;;;;10.20;2.53;;;12.60;93.80;;;;;;5105212;28;20448;-68
2022/11/10 00:10:10;;;;;;;6.43;1.90;;;12.60;93.70;;;;;;5098587;28;20451;-68
2022/11/10 00:12:38;;;;;;;8.27;2.90;;;12.60;93.60;;;;;;5106741;28;20492;-68
2022/11/10 00:17:50;;;;;;;8.37;2.83;;;12.60;93.50;;;;;;5108283;28;20830;-68
2022/11/10 00:20:17;;;;;;;10.10;2.00;;;12.60;93.60;;;;;;5108184;28;20454;-68
2022/11/10 00:22:44;;;;;;;5.67;1.93;;;12.60;93.60;;;;;;5108678;28;20475;-69
2022/11/10 00:25:11;;;;;;;10.10;3.30;;;12.50;93.70;;;;;;5108676;28;20458;-69
2022/11/10 00:27:39;;;;;;;6.30;2.57;;;12.50;93.80;;;;;;5108884;28;20435;-68
2022/11/10 00:30:07;;;;;;;10.83;2.20;;;12.50;93.60;;;;;;5107864;28;20450;-68
2022/11/10 00:32:34;;;;;;;3.10;1.97;;;12.50;93.80;;;;;;5108693;28;20452;-68
2022/11/10 00:35:00;;;;;;;8.77;2.00;;;12.50;93.70;;;;;;5108334;28;20448;-68
2022/11/10 00:37:27;;;;;;;11.40;2.87;;;12.50;93.70;;;;;;5107335;28;20548;-69
2022/11/10 00:39:54;;;;;;;14.27;2.90;;;12.50;93.60;;;;;;5107212;28;20420;-68
2022/11/10 00:42:20;;;;;;;7.30;2.20;;;12.50;93.70;;;;;;5108166;28;20459;-68
2022/11/10 00:44:48;;;;;;;7.03;2.20;;;12.50;93.80;;;;;;5108699;28;20443;-68
2022/11/10 00:47:15;;;;;;;9.67;2.80;;;12.40;93.90;;;;;;5108507;28;20443;-68
2022/11/10 00:49:42;;;;;;;7.87;1.73;;;12.40;94.00;;;;;;5106674;28;20436;-68
2022/11/10 00:52:09;;;;;;;8.07;2.27;;;12.40;94.40;;;;;;5107767;28;20490;-68
2022/11/10 00:54:35;;;;;;;7.53;2.37;;;12.40;94.00;;;;;;5111626;28;20451;-68
2022/11/10 00:57:02;;;;;;;7.93;3.17;;;12.50;94.00;;;;;;5112575;28;20443;-68
2022/11/10 00:59:29;;;;;;;9.20;2.73;;;12.50;93.90;;;;;;5112610;28;20451;-68
2022/11/10 01:01:57;;;;;;;7.57;2.10;;;12.50;94.00;;;;;;5111464;28;20444;-68
2022/11/10 01:04:24;;;;;;;12.23;3.23;;;12.40;93.90;;;;;;5112136;28;20461;-68
2022/11/10 01:06:51;;;;;;;19.20;2.57;;;12.40;93.90;;;;;;5111593;28;20452;-68
2022/11/10 01:09:18;;;;;;;9.23;2.40;;;12.50;94.00;;;;;;5112181;28;20443;-68
2022/11/10 01:11:45;;;;;;;10.37;1.83;;;12.50;93.90;;;;;;5111887;28;20479;-69
2022/11/10 01:14:12;;;;;;;8.73;2.13;;;12.50;93.80;;;;;;5111784;28;20454;-69
2022/11/10 01:16:39;;;;;;;6.50;2.23;;;12.50;93.80;;;;;;5111306;28;20456;-68
2022/11/10 01:19:07;;;;;;;23.20;3.73;;;12.50;93.80;;;;;;5112005;28;20447;-68
2022/11/10 01:21:33;;;;;;;14.97;2.67;;;12.50;93.90;;;;;;5111842;28;20440;-68
2022/11/10 01:24:00;;;;;;;12.00;2.80;;;12.50;93.90;;;;;;5111626;28;20464;-68
2022/11/10 01:26:27;;;;;;;9.80;2.77;;;12.50;93.90;;;;;;5111517;28;20452;-68
2022/11/10 01:28:54;;;;;;;9.43;2.20;;;12.50;93.90;;;;;;5111947;28;20447;-68
2022/11/10 01:31:21;;;;;;;7.20;1.77;;;12.50;93.90;;;;;;5111198;28;20482;-68
2022/11/10 01:33:48;;;;;;;7.30;2.00;;;12.50;93.90;;;;;;5110886;28;20470;-68
2022/11/10 01:36:17;;;;;;;11.80;2.57;;;12.50;93.80;;;;;;5111869;28;20469;-68
2022/11/10 01:38:44;;;;;;;8.10;2.63;;;12.60;93.80;;;;;;5111836;28;20433;-69
2022/11/10 01:41:12;;;;;;;10.23;2.80;;;12.50;93.60;;;;;;5111358;28;20807;-69
2022/11/10 01:43:40;;;;;;;10.13;1.70;;;12.50;93.60;;;;;;5110893;28;20478;-69
2022/11/10 01:46:08;;;;;;;7.30;2.13;;;12.50;93.60;;;;;;5110704;28;20945;-68
2022/11/10 01:48:39;;;;;;;9.37;2.20;;;12.50;93.60;;;;;;5111470;28;20810;-68
2022/11/10 01:51:10;;;;;;;8.73;2.47;;;12.50;93.60;;;;;;5110700;28;20464;-68
2022/11/10 01:53:44;;;;;;;7.97;2.30;;;12.50;93.60;;;;;;5093746;28;20467;-68
2022/11/10 01:56:13;;;;;;;5.77;1.90;;;12.40;93.70;;;;;;5111875;28;20435;-68
2022/11/10 01:58:45;;;;;;;20.90;3.03;;;12.40;93.70;;;;;;5111992;28;20442;-68
2022/11/10 02:01:11;;;;;;;11.00;2.53;;;12.40;93.80;;;;;;5111252;28;20428;-68
2022/11/10 02:03:43;;;;;;;9.70;3.37;;;12.40;93.80;;;;;;5110250;28;20464;-68
2022/11/10 02:06:11;;;;;;;6.80;2.17;;;12.40;93.90;;;;;;5111963;28;20449;-68
2022/11/10 02:08:41;;;;;;;12.13;3.00;;;12.40;94.00;;;;;;5110486;28;20449;-68
2022/11/10 02:11:07;;;;;;;7.97;2.70;;;12.30;94.00;;;;;;5110974;28;20486;-68
2022/11/10 02:13:34;;;;;;;11.00;3.47;;;12.30;94.10;;;;;;5106414;28;20471;-69
2022/11/10 02:16:01;;;;;;;6.40;1.90;;;12.30;94.10;;;;;;5108620;28;20590;-69
2022/11/10 02:18:28;;;;;;;10.37;2.73;;;12.30;94.10;;;;;;5110354;28;20451;-69
2022/11/10 02:20:56;;;;;;;7.73;2.20;;;12.30;94.10;;;;;;5111030;28;20449;-68
2022/11/10 02:23:43;;;;;;;5.00;2.03;;;12.30;94.10;;;;;;5110297;28;20985;-68
2022/11/10 02:26:10;;;;;;;10.73;3.03;;;12.30;94.10;;;;;;5110273;28;20442;-69
2022/11/10 02:28:37;;;;;;;8.10;2.00;;;12.30;94.10;;;;;;5109578;28;20454;-69
2022/11/10 02:31:05;;;;;;;7.27;2.10;;;12.30;94.00;;;;;;5109473;28;20486;-68
2022/11/10 02:33:32;;;;;;;12.17;2.67;;;12.30;94.20;;;;;;5110431;28;20478;-68
2022/11/10 02:36:00;;;;;;;7.00;2.40;;;12.30;94.20;;;;;;5110222;28;20450;-68
2022/11/10 02:38:26;;;;;;;7.10;2.10;;;12.20;94.20;;;;;;5109951;28;20446;-68
2022/11/10 02:40:53;;;;;;;14.07;2.00;;;12.20;94.40;;;;;;5109576;28;20453;-68
2022/11/10 02:43:20;;;;;;;6.47;2.00;;;12.20;94.40;;;;;;5109506;28;20474;-68
2022/11/10 02:45:47;;;;;;;9.17;2.23;;;12.20;94.50;;;;;;5110387;28;20450;-68
2022/11/10 02:48:15;;;;;;;12.10;3.30;;;12.20;94.20;;;;;;5109612;28;20436;-68
2022/11/10 02:50:42;;;;;;;7.03;2.40;;;12.20;94.50;;;;;;5109290;28;20859;-68
2022/11/10 02:53:11;;;;;;;7.47;2.30;;;12.20;94.40;;;;;;5109711;28;20495;-69
2022/11/10 02:55:37;;;;;;;9.07;2.30;;;12.20;94.50;;;;;;5109786;28;20473;-69
2022/11/10 02:58:05;;;;;;;13.90;3.27;;;12.20;94.50;;;;;;5109414;28;20453;-68
2022/11/10 03:00:31;;;;;;;6.50;2.03;;;12.20;94.50;;;;;;5109384;28;20434;-68
2022/11/10 03:03:00;;;;;;;10.40;2.20;;;12.20;94.50;;;;;;5110273;28;20470;-68
2022/11/10 03:05:28;;;;;;;8.37;2.90;;;12.20;94.60;;;;;;5109722;28;20444;-68
2022/11/10 03:07:55;;;;;;;14.03;2.97;;;12.10;94.50;;;;;;5109411;28;20453;-68
2022/11/10 03:10:24;;;;;;;14.20;2.90;;;12.20;94.60;;;;;;5109169;28;20485;-68
2022/11/10 03:12:53;;;;;;;8.10;2.23;;;12.10;94.50;;;;;;5109813;28;20491;-68
2022/11/10 03:15:20;;;;;;;12.90;2.60;;;12.20;94.50;;;;;;5102909;28;20448;-68
2022/11/10 03:17:47;;;;;;;14.43;2.10;;;12.20;94.40;;;;;;5102176;28;20439;-68
2022/11/10 03:20:14;;;;;;;12.97;3.00;;;12.20;94.30;;;;;;5108090;28;20443;-68
2022/11/10 03:22:41;;;;;;;7.80;1.87;;;12.20;94.30;;;;;;5109797;28;20537;-68
2022/11/10 03:25:08;;;;;;;10.77;2.33;;;12.20;94.30;;;;;;5110304;28;20448;-68
2022/11/10 03:27:37;;;;;;;8.30;1.97;;;12.20;94.40;;;;;;5109959;28;20448;-68
2022/11/10 03:30:05;;;;;;;7.23;2.10;;;12.20;94.50;;;;;;5109750;28;20447;-68
2022/11/10 03:32:32;;;;;;;12.40;2.33;;;12.10;94.50;;;;;;5108622;28;20494;-68
2022/11/10 03:34:59;;;;;;;10.13;2.40;;;12.10;94.70;;;;;;5109326;28;20447;-68
2022/11/10 03:37:26;;;;;;;12.10;2.80;;;12.10;94.80;;;;;;5110114;28;20459;-68
2022/11/10 03:39:53;;;;;;;9.37;2.20;;;12.10;94.80;;;;;;5109466;28;20466;-68
2022/11/10 03:42:19;;;;;;;9.30;2.93;;;12.10;94.90;;;;;;5109672;28;20470;-68
2022/11/10 03:44:47;;;;;;;16.23;2.80;;;12.10;94.80;;;;;;5109519;28;20450;-68
2022/11/10 03:47:14;;;;;;;7.63;1.87;;;12.10;94.80;;;;;;5109900;28;20822;-68
2022/11/10 03:49:41;;;;;;;10.20;2.23;;;12.10;94.80;;;;;;5110030;28;20454;-68
2022/11/10 03:52:08;;;;;;;13.60;2.30;;;12.10;94.90;;;;;;5109372;28;20486;-68
2022/11/10 03:54:34;;;;;;;8.50;2.00;;;12.10;94.90;;;;;;5106848;28;20451;-68
2022/11/10 03:57:01;;;;;;;14.17;2.50;;;12.10;94.80;;;;;;5107466;28;20454;-68
2022/11/10 03:59:28;;;;;;;7.97;2.13;;;12.10;94.90;;;;;;5107002;28;20437;-68
2022/11/10 04:01:56;;;;;;;10.40;2.77;;;12.10;94.90;;;;;;5107112;28;20438;-68
2022/11/10 04:09:53;;;;;;;12.93;3.07;;;12.00;94.90;;;;;;5108047;28;20440;-68
2022/11/10 04:17:51;;;;;;;16.87;2.80;;;11.80;95.40;;;;;;5108685;28;20438;-68
2022/11/10 04:20:18;;;;;;;13.50;3.07;;;11.80;95.40;;;;;;5108975;28;20446;-68
2022/11/10 04:25:29;;;;;;;14.30;4.83;;;11.80;95.60;;;;;;5109149;28;20550;-68
2022/11/10 04:27:57;;;;;;;18.00;2.87;;;11.80;95.80;;;;;;5109053;28;20463;-68
2022/11/10 04:30:24;;;;;;;8.50;2.20;;;11.80;96.20;;;;;;5109047;28;20501;-68
2022/11/10 04:32:54;;;;;;;9.10;2.77;;;11.80;95.90;;;;;;5108782;28;20487;-68
2022/11/10 04:35:21;;;;;;;11.83;2.27;;;11.80;95.80;;;;;;5109624;28;20451;-69
2022/11/10 04:37:48;;;;;;;10.60;2.60;;;11.80;95.70;;;;;;5109153;28;20457;-68
2022/11/10 04:40:15;;;;;;;13.07;3.20;;;11.80;95.80;;;;;;5109446;28;20452;-68
2022/11/10 04:42:42;;;;;;;11.10;2.37;;;11.80;95.80;;;;;;5108219;28;20465;-68
2022/11/10 04:45:09;;;;;;;12.40;2.63;;;11.70;95.80;;;;;;5108674;28;20446;-68
2022/11/10 04:47:36;;;;;;;6.80;2.30;;;11.70;95.90;;;;;;5108660;28;20449;-68
2022/11/10 04:50:05;;;;;;;9.53;2.60;;;11.70;95.90;;;;;;5109543;28;20457;-68
2022/11/10 04:52:31;;;;;;;13.27;2.80;;;11.70;96.00;;;;;;5109170;28;20498;-68
2022/11/10 04:54:58;;;;;;;7.23;2.43;;;11.80;96.00;;;;;;5109079;28;20452;-68
2022/11/10 04:57:25;;;;;;;8.90;2.23;;;11.70;96.00;;;;;;5109092;28;20446;-68
2022/11/10 04:59:51;;;;;;;12.60;2.87;;;11.80;96.00;;;;;;5109140;28;20447;-68
2022/11/10 05:02:18;;;;;;;9.73;2.43;;;11.70;96.20;;;;;;5108944;28;20466;-69
2022/11/10 05:04:45;;;;;;;12.93;2.97;;;11.70;95.90;;;;;;5107877;28;20457;-69
2022/11/10 05:07:13;;;;;;;11.23;3.27;;;11.70;96.00;;;;;;5104975;28;20459;-67
2022/11/10 05:09:39;;;;;;;11.13;2.93;;;11.70;96.00;;;;;;5107950;28;20445;-68
2022/11/10 05:12:06;;;;;;;13.57;2.60;;;11.70;96.00;;;;;;5109475;28;20550;-68
2022/11/10 05:14:33;;;;;;;9.23;2.47;;;11.70;96.00;;;;;;5109412;28;20448;-68
2022/11/10 05:17:00;;;;;;;12.53;2.80;;;11.70;96.10;;;;;;5108867;28;20459;-68
2022/11/10 05:19:26;;;;;;;8.47;2.80;;;11.60;96.10;;;;;;5109799;28;20453;-68
2022/11/10 05:21:53;;;;;;;12.40;2.53;;;11.70;96.20;;;;;;5108953;28;20441;-67
2022/11/10 05:24:21;;;;;;;6.37;2.20;;;11.70;96.10;;;;;;5109642;28;20442;-68
2022/11/10 05:26:48;;;;;;;13.53;2.57;;;11.70;96.20;;;;;;5108954;28;20455;-68
2022/11/10 05:29:14;;;;;;;10.63;2.70;;;11.70;96.20;;;;;;5108493;28;20447;-68
2022/11/10 05:31:41;;;;;;;7.10;2.13;;;11.70;96.10;;;;;;5108944;28;20443;-68
2022/11/10 05:34:08;;;;;;;6.20;2.63;;;11.70;96.10;;;;;;5108719;28;20453;-69
2022/11/10 05:36:34;;;;;;;12.67;2.63;;;11.70;96.00;;;;;;5108953;28;20457;-68
2022/11/10 05:39:01;;;;;;;6.03;1.90;;;11.70;96.00;;;;;;5111354;28;20447;-68
2022/11/10 05:41:29;;;;;;;8.93;2.17;;;11.70;96.10;;;;;;5113156;28;20458;-68
2022/11/10 05:43:56;;;;;;;10.07;2.27;;;11.70;96.00;;;;;;5112872;28;20464;-68
2022/11/10 05:46:22;;;;;;;16.77;2.63;;;11.70;96.00;;;;;;5112678;28;20451;-68
2022/11/10 05:48:49;;;;;;;12.50;2.10;;;11.60;95.90;;;;;;5112426;28;20469;-68
2022/11/10 05:51:16;;;;;;;6.70;2.20;;;11.60;96.00;;;;;;5112479;28;20443;-67
2022/11/10 05:53:42;;;;;;;12.40;2.97;;;11.70;96.00;;;;;;5112924;28;20531;-67
2022/11/10 05:56:09;;;;;;;14.20;2.30;;;11.70;95.90;;;;;;5112559;28;20545;-69
2022/11/10 05:58:37;;;;;;;9.13;2.80;;;11.70;95.90;;;;;;5113157;28;20453;-67
2022/11/10 06:01:04;;;;;;;8.37;3.03;;;11.70;95.80;;;;;;5112242;28;20466;-69
2022/11/10 06:03:31;;;;;;;10.20;3.13;;;11.70;95.90;;;;;;5111557;28;20554;-69
2022/11/10 06:05:58;;;;;;;13.17;2.87;;;11.70;95.80;;;;;;5112130;28;20451;-68
2022/11/10 06:08:25;;;;;;;7.63;2.63;;;11.60;95.90;;;;;;5112930;28;20443;-68
2022/11/10 06:10:52;;;;;;;7.20;2.17;;;11.60;95.80;;;;;;5113737;28;20443;-69
2022/11/10 06:13:19;;;;;;;8.10;2.23;;;11.60;95.80;;;;;;5112676;28;20482;-68
2022/11/10 06:15:47;;;;;;;12.77;3.40;;;11.60;95.90;;;;;;5112314;28;20452;-67
2022/11/10 06:18:13;;;;;;;9.63;2.73;;;11.60;95.80;;;;;;5112119;28;20446;-68
2022/11/10 06:20:40;;;;;;;6.97;2.00;;;11.60;95.80;;;;;;5110999;28;20455;-67
2022/11/10 06:23:10;;;;;;;10.37;2.30;;;11.60;95.70;;;;;;5103071;28;20462;-67
2022/11/10 06:25:39;;;;;;;9.57;2.63;;;11.70;95.80;;;;;;5106035;28;20447;-67
2022/11/10 06:28:07;;;;;;;15.13;3.53;;;11.60;95.80;;;;;;5109989;28;20855;-70
2022/11/10 06:30:36;;;;;;;12.70;2.10;;;11.60;95.80;;;;;;5112194;28;20431;-70
2022/11/10 06:33:04;;;;;;;16.60;2.53;;;11.60;95.90;;;;;;5112075;28;20487;-70
2022/11/10 06:35:31;;;;;;;7.90;2.03;;;11.60;96.00;;;;;;5112483;28;20443;-70
2022/11/10 06:38:00;;;;;;;14.70;2.30;;;11.60;95.90;;;;;;5112732;28;20458;-69
2022/11/10 06:40:27;;;;;;;12.40;3.27;;;11.60;95.90;;;;;;5111723;28;20427;-69
2022/11/10 06:42:54;;;;;;;30.73;2.60;;;11.60;95.90;;;;;;5112059;28;20462;-69
2022/11/10 06:45:21;;;;;;;6.07;2.63;;;11.60;96.00;;;;;;5112315;28;20430;-70
2022/11/10 06:47:48;;;;;;;7.50;2.30;;;11.60;96.00;;;;;;5111685;28;20452;-70
2022/11/10 06:50:16;;;;;;;12.60;3.00;;;11.60;95.90;;;;;;5110433;28;20454;-69
2022/11/10 06:52:43;;;;;;;10.00;2.40;;;11.60;96.00;;;;;;5112031;28;20494;-70
2022/11/10 06:55:09;;;;;;;17.13;4.00;;;11.60;96.00;;;;;;5111855;28;20542;-70
2022/11/10 06:57:38;;;;;;;9.97;2.40;;;11.60;96.00;;;;;;5109693;28;20828;-70
2022/11/10 07:00:05;;;;;;;9.33;2.57;;;11.60;96.00;;;;;;5109681;28;20444;-71
2022/11/10 07:02:32;;;;;;;11.07;2.60;;;11.60;96.10;;;;;;5109039;28;20466;-70
2022/11/10 07:04:59;;;;;;;16.03;2.70;;;11.60;96.20;;;;;;5105486;28;20458;-70
2022/11/10 07:07:27;;;;;;;9.10;2.30;;;11.60;96.20;;;;;;5085947;28;20436;-69
2022/11/10 07:09:53;;;;;;;14.87;3.40;;;11.60;96.10;;;;;;5103246;28;20447;-69
2022/11/10 07:12:20;;;;;;;12.10;2.30;;;11.60;96.10;;;;;;5104515;28;20490;-69
2022/11/10 07:14:47;;;;;;;12.27;3.10;;;11.60;96.20;;;;;;5105642;28;20446;-69
2022/11/10 07:17:14;;;;;;;12.63;3.03;;;11.60;96.10;;;;;;5106098;28;20453;-70
2022/11/10 07:19:40;;;;;;;14.37;2.73;;;11.70;96.10;;;;;;5106306;28;20508;-70
2022/11/10 07:22:07;;;;;;;16.43;3.57;;;11.70;96.00;;;;;;5106378;28;20467;-70
2022/11/10 07:24:35;;;;;;;16.07;2.93;;;11.70;96.00;;;;;;5104087;28;20454;-70
2022/11/10 07:27:02;;;;;;;12.33;2.70;;;11.70;96.00;;;;;;5105501;28;20431;-70
2022/11/10 07:29:29;;;;;;;11.13;3.00;;;11.70;96.00;;;;;;5105077;28;20447;-70
2022/11/10 07:31:56;;;;;;;13.90;2.60;;;11.80;96.10;;;;;;5107577;28;20443;-70
2022/11/10 07:34:23;;;;;;;17.13;3.40;;;11.70;96.00;;;;;;5105200;28;20823;-70
2022/11/10 07:36:49;;;;;;;14.27;3.43;;;11.70;96.10;;;;;;5106789;28;20466;-70
2022/11/10 07:39:16;;;;;;;13.53;2.50;;;11.80;96.00;;;;;;5107404;28;20447;-70
2022/11/10 07:41:44;;;;;;;13.90;3.00;;;11.80;96.10;;;;;;5106894;28;20451;-70
2022/11/10 07:44:11;;;;;;;13.00;2.57;;;11.80;96.10;;;;;;5106406;28;20949;-70
2022/11/10 07:46:37;;;;;;;16.83;4.07;;;11.90;96.10;;;;;;5105255;28;20451;-71
2022/11/10 07:49:04;;;;;;;9.07;2.63;;;11.90;95.90;;;;;;5105347;28;20906;-70
2022/11/10 07:51:31;;;;;;;8.60;2.40;;;11.90;95.80;;;;;;5105059;28;20438;-70
2022/11/10 07:53:58;;;;;;;10.90;2.63;;;11.90;95.80;;;;;;5105461;28;20489;-70
2022/11/10 07:56:24;;;;;;;10.20;2.93;;;12.00;95.90;;;;;;5104640;28;20450;-70
2022/11/10 07:58:52;;;;;;;6.10;1.80;;;12.00;95.80;;;;;;5105356;28;20436;-69
2022/11/10 08:01:19;;;;;;;10.27;2.50;;;12.00;95.70;;;;;;5104924;28;20211;-70
2022/11/10 08:03:46;;;;;;;19.05;3.90;;;12.10;95.50;;;;;;5105491;28;20425;-69
2022/11/10 08:06:12;;;;;;;13.70;3.03;;;12.10;95.30;;;;;;5107201;28;20610;-70
2022/11/10 08:08:39;;;;;;;12.03;2.70;;;12.20;95.40;;;;;;5110238;28;20450;-67
2022/11/10 08:11:06;;;;;;;10.50;2.40;;;12.20;95.40;;;;;;5113931;28;20454;-71
2022/11/10 08:13:33;;;;;;;14.57;2.53;;;12.20;95.40;;;;;;5113452;28;20490;-71
2022/11/10 08:16:01;;;;;;;15.67;2.83;;;12.30;95.60;;;;;;5109387;28;20455;-71
2022/11/10 08:18:28;;;;;;;15.17;3.50;;;12.30;95.60;;;;;;5108783;28;20450;-71
2022/11/10 08:20:55;;;;;;;14.70;3.87;;;12.30;95.50;;;;;;5108472;28;20458;-70
2022/11/10 08:23:22;;;;;;;10.57;2.60;;;12.30;95.60;;;;;;5109293;28;20821;-69
2022/11/10 08:25:51;;;;;;;9.67;2.53;;;12.40;95.70;;;;;;5111183;28;20451;-68
2022/11/10 08:28:19;;;;;;;7.27;1.93;;;12.40;95.70;;;;;;5110803;28;20440;-67
2022/11/10 08:30:47;;;;;;;9.40;2.57;;;12.40;95.80;;;;;;5109615;28;20473;-68
2022/11/10 08:33:17;;;;;;;9.40;2.20;;;12.40;95.70;;;;;;5110855;28;20483;-70
2022/11/10 08:35:46;;;;;;;22.37;3.00;;;12.50;95.70;;;;;;5112292;28;20427;-68
2022/11/10 08:38:14;;;;;;;9.13;3.30;;;12.50;95.40;;;;;;5110235;28;20426;-68
2022/11/10 08:40:41;;;;;;;19.10;2.83;;;12.50;95.60;;;;;;5109995;28;20430;-68
2022/11/10 08:43:10;;;;;;;7.23;2.90;;;12.60;95.70;;;;;;5110112;28;20531;-68
2022/11/10 08:45:38;;;;;;;12.27;2.17;;;12.60;95.70;;;;;;5109708;28;20455;-68
2022/11/10 08:48:07;;;;;;;9.23;2.43;;;12.70;95.60;;;;;;5110297;28;20443;-68
2022/11/10 08:50:35;;;;;;;13.03;5.63;;;12.70;95.60;;;;;;5110385;28;20511;-67
2022/11/10 08:53:03;;;;;;;15.37;3.53;;;12.80;95.60;;;;;;5110353;28;20491;-68
2022/11/10 08:55:30;;;;;;;8.57;2.87;;;12.80;95.40;;;;;;5109078;28;20447;-68
2022/11/10 08:57:59;;;;;;;13.10;3.20;;;12.80;95.60;;;;;;5109259;28;20455;-68
2022/11/10 09:00:27;;;;;;;13.63;2.90;;;12.80;95.60;;;;;;5109530;28;20439;-68
2022/11/10 09:02:54;;;;;;;14.20;3.40;;;12.80;95.60;;;;;;5109015;28;20469;-68
2022/11/10 09:05:20;;;;;;;14.30;3.47;;;12.90;95.70;;;;;;5108628;28;20460;-69
2022/11/10 09:07:50;;;;;;;14.53;2.87;;;13.00;95.80;;;;;;5089054;28;20431;-68
2022/11/10 09:10:17;;;;;;;22.97;3.70;;;13.10;95.60;;;;;;5107907;28;20439;-68
2022/11/10 09:12:44;;;;;;;14.07;3.20;;;13.10;95.20;;;;;;5108741;28;20467;-67
2022/11/10 09:15:11;;;;;;;12.33;2.63;;;13.20;95.20;;;;;;5110724;28;20522;-68
2022/11/10 09:17:38;;;;;;;12.63;2.60;;;13.20;95.10;;;;;;5112585;28;20436;-68
2022/11/10 09:20:07;;;;;;;18.10;3.33;;;13.30;94.90;;;;;;5112543;28;20427;-68
2022/11/10 09:22:35;;;;;;;16.60;2.93;;;13.30;94.70;;;;;;5113346;28;20989;-68
2022/11/10 09:25:04;;;;;;;7.63;2.40;;;13.40;94.80;;;;;;5113250;28;20454;-68
2022/11/10 09:27:34;;;;;;;15.27;3.67;;;13.50;94.60;;;;;;5099434;28;20428;-70
2022/11/10 09:30:01;;;;;;;14.07;2.53;;;13.60;94.90;;;;;;5100093;28;20447;-71
2022/11/10 09:32:28;;;;;;;14.03;2.80;;;13.60;94.50;;;;;;5099213;28;20464;-71
2022/11/10 09:34:54;;;;;;;7.47;1.87;;;13.70;94.30;;;;;;5102236;28;20471;-71
2022/11/10 09:37:21;;;;;;;15.40;2.93;;;13.70;94.00;;;;;;5099888;28;20462;-72
2022/11/10 09:39:48;;;;;;;11.33;2.87;;;13.70;94.00;;;;;;5100161;28;20444;-71
2022/11/10 09:42:29;;;;;;;11.27;2.93;;;13.70;93.90;;;;;;5104114;28;20470;-72
2022/11/10 09:45:01;;;;;;;9.23;2.17;;;13.80;93.70;;;;;;5112101;28;20425;-70
2022/11/10 09:47:36;;;;;;;13.13;3.23;;;13.80;93.60;;;;;;5110840;28;20447;-70
2022/11/10 09:50:06;;;;;;;14.27;2.30;;;13.90;93.70;;;;;;5112395;28;20438;-70
2022/11/10 09:52:36;;;;;;;11.80;2.70;;;14.00;93.60;;;;;;5112679;28;20494;-70
2022/11/10 09:55:13;;;;;;;11.10;2.37;;;14.10;93.70;;;;;;5114175;28;20550;-71
2022/11/10 09:57:44;;;;;;;10.50;2.77;;;14.10;93.30;;;;;;5112579;28;20436;-71
2022/11/10 10:00:14;;;;;;;13.10;2.90;;;14.20;93.20;;;;;;5112822;28;20424;-71
2022/11/10 10:02:45;;;;;;;16.23;4.07;;;14.40;92.80;;;;;;5109892;28;20460;-71
2022/11/10 10:05:54;;;;;;;13.37;3.17;;;14.50;92.80;;;;;;5113821;28;20438;-71
2022/11/10 10:08:31;;;;;;;11.70;2.53;;;14.60;92.70;;;;;;5104668;28;20461;-72
2022/11/10 10:11:08;;;;;;;11.23;2.40;;;14.70;92.60;;;;;;5112461;28;20424;-70
2022/11/10 10:14:01;;;;;;;15.17;2.23;;;14.80;92.00;;;;;;5111280;28;20491;-71
2022/11/10 10:16:34;;;;;;;7.20;2.30;;;14.90;91.60;;;;;;5115630;28;20440;-72
2022/11/10 10:19:11;;;;;;;7.33;2.23;;;15.00;91.40;;;;;;5114397;28;20438;-72
2022/11/10 10:21:48;;;;;;;7.70;2.20;;;15.00;91.40;;;;;;5116841;28;20432;-72
2022/11/10 10:24:19;;;;;;;8.93;1.97;;;15.10;91.20;;;;;;5117048;28;20434;-72
2022/11/10 10:26:51;;;;;;;17.87;3.80;;;15.20;91.10;;;;;;5114334;28;20451;-72
2022/11/10 10:29:23;;;;;;;7.67;2.37;;;15.30;90.70;;;;;;5117391;28;20438;-72
2022/11/10 10:31:51;;;;;;;10.40;2.43;;;15.40;90.80;;;;;;5116124;28;20495;-72
2022/11/10 10:34:21;;;;;;;12.33;2.50;;;15.50;89.90;;;;;;5116564;28;20472;-72
2022/11/10 10:36:48;;;;;;;5.67;1.93;;;15.70;90.00;;;;;;5116595;28;20452;-72
2022/11/10 10:39:18;;;;;;;7.27;1.90;;;15.80;88.90;;;;;;5116452;28;20444;-72
2022/11/10 10:41:46;;;;;;;9.53;2.10;;;16.10;88.20;;;;;;5117259;28;20443;-73
2022/11/10 10:44:14;;;;;;;8.13;2.20;;;16.20;86.00;;;;;;5117492;28;20496;-73
2022/11/10 10:46:55;;;;;;;7.63;2.00;;;16.40;84.50;;;;;;5119022;28;20443;-74
2022/11/10 10:49:23;;;;;;;6.27;1.87;;;16.60;82.90;;;;;;5120073;28;20412;-74
2022/11/10 10:52:03;;;;;;;6.60;1.93;;;16.80;81.20;;;;;;5118512;28;20446;-74
2022/11/10 10:54:31;;;;;;;6.10;2.20;;;17.10;80.90;;;;;;5116289;28;20531;-74
2022/11/10 10:57:23;;;;;;;7.60;2.70;;;17.40;78.40;;;;;;5117092;28;20431;-74
2022/11/10 10:59:50;;;;;;;7.93;1.87;;;17.70;76.00;;;;;;5118036;28;20424;-74
2022/11/10 11:02:26;;;;;;;6.20;1.77;;;17.90;73.20;;;;;;5117478;28;20494;-74
2022/11/10 11:05:11;;;;;;;8.03;2.20;;;18.20;72.80;;;;;;5118128;28;20438;-74
2022/11/10 11:07:38;;;;;;;12.10;1.83;;;18.60;69.70;;;;;;5117588;28;20425;-73
2022/11/10 11:10:18;;;;;;;9.23;1.90;;;18.80;69.10;;;;;;5116173;28;20454;-73
2022/11/10 11:12:45;;;;;;;5.77;2.10;;;19.10;65.80;;;;;;5116583;28;20468;-73
2022/11/10 11:15:19;;;;;;;10.70;2.50;;;19.10;66.50;;;;;;5117497;28;20470;-72
2022/11/10 11:17:57;;;;;;;7.70;2.00;;;19.40;65.60;;;;;;5119844;28;20490;-73
2022/11/10 11:20:32;;;;;;;8.57;2.53;;;19.80;63.10;;;;;;5116223;28;20452;-74
2022/11/10 11:23:03;;;;;;;7.50;1.90;;;20.10;61.70;;;;;;5115708;28;20459;-74
2022/11/10 11:25:34;;;;;;;9.23;1.60;;;20.20;60.20;;;;;;5116219;28;20498;-73
2022/11/10 11:28:13;;;;;;;7.63;1.47;;;20.40;59.20;;;;;;5115977;28;20466;-73
2022/11/10 11:30:51;;;;;;;19.60;2.73;;;20.60;59.10;;;;;;5116541;28;20439;-73
2022/11/10 11:33:32;;;;;;;5.50;1.70;;;20.80;57.60;;;;;;5116009;28;20464;-74
2022/11/10 11:36:09;;;;;;;10.60;2.20;;;21.10;56.70;;;;;;5114882;28;20436;-74
2022/11/10 11:38:47;;;;;;;3.87;1.40;;;21.50;55.30;;;;;;5115982;28;20452;-74
2022/11/10 11:41:20;;;;;;;13.13;1.90;;;21.60;54.20;;;;;;5115929;28;20424;-73
2022/11/10 11:44:03;;;;;;;7.47;1.67;;;21.70;54.40;;;;;;5114524;28;20510;-74
2022/11/10 11:46:39;;;;;;;6.77;1.73;;;21.70;53.50;;;;;;5114871;28;20428;-74
2022/11/10 11:49:37;;;;;;;6.33;1.60;;;21.60;52.70;;;;;;5114935;28;20435;-74
2022/11/10 11:52:14;;;;;;;10.70;1.93;;;21.40;52.50;;;;;;5115257;28;20460;-74
2022/11/10 11:54:52;;;;;;;4.83;1.20;;;21.10;52.40;;;;;;5115277;28;20463;-74
2022/11/10 11:57:31;;;;;;;3.90;1.20;;;20.80;53.50;;;;;;5115428;28;20431;-74
2022/11/10 12:00:05;;;;;;;6.67;1.50;;;20.80;53.60;;;;;;5116077;28;20484;-74
2022/11/10 12:02:56;;;;;;;4.57;1.30;;;21.20;53.60;;;;;;5116257;28;20478;-74
2022/11/10 12:05:43;;;;;;;4.03;1.50;;;21.60;52.70;;;;;;5117037;28;20440;-74
2022/11/10 12:08:22;;;;;;;5.77;1.70;;;21.90;52.60;;;;;;5116903;28;20458;-75
2022/11/10 12:10:57;;;;;;;7.03;1.70;;;22.30;50.70;;;;;;5113665;28;20435;-74
2022/11/10 12:13:36;;;;;;;5.07;1.53;;;22.60;50.00;;;;;;5114651;28;20471;-73
2022/11/10 12:16:12;;;;;;;3.53;1.10;;;23.00;48.90;;;;;;5117854;28;20431;-73
2022/11/10 12:18:45;;;;;;;4.57;1.53;;;23.10;47.80;;;;;;5116621;28;20794;-72
2022/11/10 12:21:23;;;;;;;7.17;1.80;;;23.00;46.70;;;;;;5116494;28;20435;-73
2022/11/10 12:24:03;;;;;;;4.10;1.33;;;22.90;47.30;;;;;;5117341;28;20466;-72
2022/11/10 12:26:39;;;;;;;5.10;1.90;;;22.60;47.50;;;;;;5115633;28;20428;-72
2022/11/10 12:29:21;;;;;;;3.93;1.90;;;22.40;47.60;;;;;;5115516;28;20464;-72
2022/11/10 12:31:51;;;;;;;3.40;1.17;;;22.40;49.40;;;;;;5113513;28;20421;-72
2022/11/10 12:34:26;;;;;;;6.57;1.60;;;22.40;48.80;;;;;;5114886;28;20472;-72
2022/11/10 12:36:54;;;;;;;5.30;1.67;;;22.00;48.20;;;;;;5113934;28;20446;-73
2022/11/10 12:39:24;;;;;;;5.60;1.60;;;21.90;48.80;;;;;;5114296;28;20440;-73
2022/11/10 12:41:58;;;;;;;3.87;1.40;;;21.90;49.10;;;;;;5111354;28;20432;-72
2022/11/10 12:44:31;;;;;;;4.27;1.30;;;21.90;49.30;;;;;;5105547;28;20845;-72
2022/11/10 12:47:01;;;;;;;2.93;1.20;;;21.90;49.00;;;;;;5113674;28;20435;-73
2022/11/10 12:49:32;;;;;;;6.80;1.53;;;22.00;48.90;;;;;;5116789;28;20442;-73
2022/11/10 12:52:09;;;;;;;3.80;1.30;;;22.30;49.00;;;;;;5118082;28;20470;-73
2022/11/10 12:54:36;;;;;;;7.47;1.53;;;22.60;48.90;;;;;;5118460;28;20468;-72
2022/11/10 12:57:07;;;;;;;5.07;1.33;;;22.60;48.00;;;;;;5118842;28;20451;-73
2022/11/10 12:59:34;;;;;;;5.67;2.07;;;22.60;47.60;;;;;;5118305;28;20428;-72
2022/11/10 13:02:04;;;;;;;5.23;1.77;;;22.50;47.20;;;;;;5108083;28;20471;-73
2022/11/10 13:04:31;;;;;;;6.63;1.60;;;22.50;47.70;;;;;;5099803;28;20432;-71
2022/11/10 13:07:02;;;;;;;6.80;1.43;;;22.30;47.20;;;;;;5100761;28;20497;-71
2022/11/10 13:09:31;;;;;;;11.23;2.10;;;22.30;48.50;;;;;;5100147;28;20456;-71